createdAt,value
2022-11-18T15:28:17.274Z,45.87
2022-11-18T15:33:20.477Z,55.30
2022-11-18T15:38:23.304Z,53.90
2022-11-18T15:43:26.150Z,61.97
2022-11-18T15:48:28.959Z,69.47
2022-11-18T15:53:31.763Z,82.43
2022-11-18T15:58:36.166Z,80.63
2022-11-18T16:03:39.452Z,81.57
2022-11-18T16:08:42.499Z,88.57
2022-11-18T16:13:45.938Z,76.67
2022-11-18T16:18:48.809Z,97.80
2022-11-18T16:23:54.507Z,82.53
2022-11-18T16:28:57.502Z,91.07
2022-11-18T16:34:05.837Z,102.70
2022-11-18T16:39:14.321Z,111.60
2022-11-18T16:44:17.687Z,90.57
2022-11-18T16:49:23.000Z,121.57
2022-11-18T16:54:27.707Z,113.50
2022-11-18T16:59:31.579Z,106.23
2022-11-18T17:04:36.376Z,110.13
2022-11-18T17:09:39.492Z,101.43
2022-11-18T17:14:42.256Z,115.43
2022-11-18T17:19:45.038Z,111.13
2022-11-18T17:24:47.792Z,113.70
2022-11-18T17:29:51.046Z,112.77
2022-11-18T17:34:53.771Z,105.43
2022-11-18T17:39:56.608Z,103.87
2022-11-18T17:44:59.480Z,103.00
2022-11-18T17:50:02.329Z,62.93
2022-11-18T17:55:06.963Z,114.77
2022-11-18T18:00:10.825Z,115.23
2022-11-18T18:05:16.284Z,99.03
2022-11-18T18:10:21.243Z,109.17
2022-11-18T18:15:24.208Z,94.63
2022-11-18T18:20:27.442Z,83.20
2022-11-18T18:25:30.552Z,108.30
2022-11-18T18:30:33.301Z,81.13
2022-11-18T18:35:41.408Z,91.13
2022-11-18T18:40:44.195Z,101.33
2022-11-18T18:46:05.508Z,92.73
2022-11-18T18:51:08.305Z,88.17
2022-11-18T18:56:11.041Z,77.93
2022-11-18T19:01:16.034Z,81.60
2022-11-18T19:06:53.289Z,83.93
2022-11-18T19:12:08.132Z,87.30
2022-11-18T19:17:12.356Z,78.10
2022-11-18T19:22:15.935Z,89.10
2022-11-18T19:27:19.498Z,95.00
2022-11-18T19:32:22.569Z,90.33
2022-11-18T19:37:25.371Z,86.57
2022-11-18T19:42:28.964Z,71.57
2022-11-18T19:47:32.117Z,76.57
2022-11-18T19:52:34.961Z,71.07
2022-11-18T19:57:37.730Z,68.40
2022-11-18T20:02:40.514Z,65.47
2022-11-18T20:07:43.416Z,63.23
2022-11-18T20:12:46.188Z,58.47
2022-11-18T20:17:48.959Z,56.07
2022-11-18T20:22:54.233Z,58.37
2022-11-18T20:27:57.309Z,56.47
2022-11-18T20:33:00.106Z,56.43
2022-11-18T20:38:02.972Z,65.07
2022-11-18T20:43:14.499Z,55.43
2022-11-18T20:48:17.296Z,43.03
2022-11-18T20:53:22.225Z,43.47
2022-11-18T20:58:24.985Z,43.67
2022-11-18T21:03:27.700Z,40.03
2022-11-18T21:08:30.405Z,34.23
2022-11-18T21:13:52.507Z,32.13
2022-11-18T21:18:55.518Z,36.33
2022-11-18T21:24:00.134Z,30.00
2022-11-18T21:29:06.173Z,31.43
2022-11-18T21:34:10.238Z,29.30
2022-11-18T21:39:13.658Z,30.97
2022-11-18T21:44:16.501Z,27.73
2022-11-18T21:49:19.594Z,29.20
2022-11-18T21:54:22.444Z,28.60
2022-11-18T21:59:25.248Z,27.00
2022-11-18T22:04:46.457Z,28.23
2022-11-18T22:09:49.487Z,31.27
2022-11-18T22:14:52.213Z,29.00
2022-11-18T22:19:54.911Z,30.67
2022-11-18T22:24:57.613Z,28.47
2022-11-18T22:30:00.330Z,30.73
2022-11-18T22:35:03.252Z,31.30
2022-11-18T22:40:06.601Z,26.73
2022-11-18T22:45:09.791Z,24.83
2022-11-18T22:50:12.558Z,25.27
2022-11-18T22:55:15.518Z,27.63
2022-11-18T23:00:18.896Z,26.13
2022-11-18T23:05:41.410Z,25.97
2022-11-18T23:11:22.907Z,24.67
2022-11-18T23:16:55.752Z,25.00
2022-11-18T23:22:11.395Z,28.17
2022-11-18T23:27:42.400Z,25.27
2022-11-18T23:32:51.442Z,23.67
2022-11-18T23:38:04.554Z,25.17
2022-11-18T23:43:17.746Z,25.90
2022-11-18T23:48:27.726Z,25.43
2022-11-18T23:53:49.649Z,25.13
2022-11-18T23:59:01.167Z,24.57
